Time;durP1;ratioP1;P1;durP2;ratioP2;P2;SDS_P1;SDS_P2;PMS_P1;PMS_P2;Temp;Humidity;BMP_temperature;BMP_pressure;BME280_temperature;BME280_humidity;BME280_pressure;Samples;Min_cycle;Max_cycle;Signal;HPM_P1;HPM_P2
2023/12/19 00:00:36;;;;;;;34.83;21.08;;;8.20;99.90;;;;;;5099309;27;20084;-81
2023/12/19 00:03:02;;;;;;;32.83;22.25;;;8.20;99.90;;;;;;5093306;27;20043;-80
2023/12/19 00:05:28;;;;;;;32.90;20.58;;;8.30;99.90;;;;;;5093952;27;20510;-81
2023/12/19 00:07:54;;;;;;;32.50;20.33;;;8.30;99.90;;;;;;5094411;28;20799;-80
2023/12/19 00:10:19;;;;;;;27.77;18.88;;;8.30;99.90;;;;;;5110504;27;20078;-82
2023/12/19 00:12:45;;;;;;;32.20;20.13;;;8.30;99.90;;;;;;5113718;27;20035;-80
2023/12/19 00:15:11;;;;;;;31.33;18.92;;;8.20;99.90;;;;;;5112685;27;20043;-81
2023/12/19 00:17:36;;;;;;;25.60;18.23;;;8.30;99.90;;;;;;5112285;27;20096;-81
2023/12/19 00:20:02;;;;;;;24.52;16.63;;;8.30;99.90;;;;;;5095973;27;20051;-81
2023/12/19 00:22:28;;;;;;;25.52;17.83;;;8.40;99.90;;;;;;5087625;28;20114;-81
2023/12/19 00:24:54;;;;;;;26.67;18.40;;;8.40;99.90;;;;;;5113416;27;20163;-81
2023/12/19 00:27:20;;;;;;;26.42;16.25;;;8.50;99.90;;;;;;5102233;27;20527;-80
2023/12/19 00:29:45;;;;;;;25.75;16.85;;;8.40;99.90;;;;;;5084188;28;20036;-81
2023/12/19 00:32:11;;;;;;;25.20;17.95;;;8.50;99.90;;;;;;5097308;27;20058;-80
2023/12/19 00:34:37;;;;;;;25.73;18.05;;;8.50;99.90;;;;;;5113621;27;20031;-80
2023/12/19 00:37:02;;;;;;;27.80;18.50;;;8.40;99.90;;;;;;5118511;27;20035;-81
2023/12/19 00:39:28;;;;;;;29.50;19.25;;;8.50;99.90;;;;;;5095774;28;20047;-80
2023/12/19 00:41:54;;;;;;;28.95;19.25;;;8.50;99.90;;;;;;5114301;27;20047;-80
2023/12/19 00:44:20;;;;;;;27.17;18.65;;;8.40;99.90;;;;;;5111688;27;20043;-82
2023/12/19 00:46:45;;;;;;;27.55;19.13;;;8.50;99.90;;;;;;5095956;27;20035;-82
2023/12/19 00:49:12;;;;;;;33.97;19.42;;;8.50;99.90;;;;;;5111987;27;20463;-82
2023/12/19 00:51:38;;;;;;;27.42;17.63;;;8.60;99.90;;;;;;5129303;27;20093;-82
2023/12/19 00:54:04;;;;;;;26.25;17.05;;;8.60;99.90;;;;;;5115548;27;20032;-81
2023/12/19 00:56:30;;;;;;;23.73;16.40;;;8.50;99.90;;;;;;5114250;27;20043;-81
2023/12/19 00:58:55;;;;;;;28.38;19.65;;;8.40;99.90;;;;;;5114061;27;20368;-81
2023/12/19 01:01:23;;;;;;;27.13;18.17;;;8.50;99.90;;;;;;5077432;28;20047;-81
2023/12/19 01:03:48;;;;;;;26.70;18.05;;;8.50;99.90;;;;;;5104752;27;20613;-81
2023/12/19 01:06:14;;;;;;;23.60;17.67;;;8.50;99.90;;;;;;5110835;27;20122;-81
2023/12/19 01:08:40;;;;;;;25.15;16.75;;;8.60;99.90;;;;;;5111684;27;20038;-81
2023/12/19 01:11:09;;;;;;;28.30;17.38;;;8.60;99.90;;;;;;5106462;27;20036;-81
2023/12/19 01:13:35;;;;;;;24.48;16.25;;;8.50;99.90;;;;;;5110992;27;20093;-81
2023/12/19 01:16:01;;;;;;;;;;;8.60;99.90;;;;;;5115035;27;20036;-81
2023/12/19 01:18:26;;;;;;;25.00;16.35;;;8.60;99.90;;;;;;5122353;27;19930;-81
2023/12/19 01:20:52;;;;;;;24.77;16.35;;;8.70;99.90;;;;;;5112010;27;20042;-81
2023/12/19 01:23:18;;;;;;;24.38;17.50;;;8.50;99.90;;;;;;5110235;27;20403;-81
2023/12/19 01:25:44;;;;;;;24.70;16.30;;;8.70;99.90;;;;;;5111514;27;20039;-81
2023/12/19 01:28:10;;;;;;;22.40;15.38;;;8.70;99.90;;;;;;5105392;27;20359;-81
2023/12/19 01:30:36;;;;;;;22.00;16.27;;;8.60;99.90;;;;;;5075346;28;20043;-81
2023/12/19 01:33:02;;;;;;;22.80;15.15;;;8.60;99.90;;;;;;5101974;28;20547;-81
2023/12/19 01:35:28;;;;;;;20.40;15.20;;;8.60;99.90;;;;;;5107062;27;20097;-81
2023/12/19 01:37:54;;;;;;;23.10;15.43;;;8.70;99.90;;;;;;5086787;27;20475;-81
2023/12/19 01:40:20;;;;;;;22.73;15.60;;;8.70;99.90;;;;;;5106636;27;20058;-81
2023/12/19 01:42:46;;;;;;;20.48;15.13;;;8.70;99.90;;;;;;5113597;27;20058;-81
2023/12/19 01:45:13;;;;;;;20.85;14.68;;;8.60;99.90;;;;;;5095510;28;20067;-81
2023/12/19 01:47:43;;;;;;;19.33;14.07;;;8.60;99.90;;;;;;5098066;27;20047;-81
2023/12/19 01:50:11;;;;;;;19.77;14.50;;;8.70;99.90;;;;;;5115891;27;20745;-81
2023/12/19 01:52:40;;;;;;;20.08;14.05;;;8.60;99.90;;;;;;5094862;28;20455;-81
2023/12/19 01:55:07;;;;;;;19.10;13.98;;;8.50;99.90;;;;;;5109127;27;20044;-81
2023/12/19 01:57:33;;;;;;;19.30;14.23;;;8.60;99.90;;;;;;5111299;27;20084;-81
2023/12/19 01:59:59;;;;;;;19.88;13.73;;;8.60;99.90;;;;;;5093000;28;20044;-81
2023/12/19 02:02:25;;;;;;;;;;;8.60;99.90;;;;;;5107956;27;20410;-81
2023/12/19 02:04:53;;;;;;;18.23;12.82;;;8.60;99.90;;;;;;5106326;27;20292;-82
2023/12/19 02:07:19;;;;;;;18.50;14.25;;;8.60;99.90;;;;;;5091766;28;20050;-81
2023/12/19 02:09:44;;;;;;;16.27;12.77;;;8.60;99.90;;;;;;5110246;27;20126;-81
2023/12/19 02:12:12;;;;;;;18.17;13.02;;;8.70;99.90;;;;;;5108470;27;20134;-81
2023/12/19 02:14:39;;;;;;;16.70;12.50;;;8.70;99.90;;;;;;5108858;27;20054;-81
2023/12/19 02:17:05;;;;;;;;;;;8.70;99.90;;;;;;5099889;27;20068;-81
2023/12/19 02:19:31;;;;;;;15.93;12.00;;;8.60;99.90;;;;;;5107682;27;19933;-82
2023/12/19 02:21:56;;;;;;;15.95;12.23;;;8.70;99.90;;;;;;5110074;27;20042;-81
2023/12/19 02:24:24;;;;;;;14.95;11.05;;;8.60;99.90;;;;;;5112399;27;20042;-81
2023/12/19 02:26:50;;;;;;;15.95;11.90;;;8.60;99.90;;;;;;5107697;27;20035;-81
2023/12/19 02:29:16;;;;;;;16.38;12.20;;;8.60;99.90;;;;;;5108082;27;20119;-81
2023/12/19 02:31:43;;;;;;;14.35;11.38;;;8.70;99.90;;;;;;5121855;27;20150;-81
2023/12/19 02:34:09;;;;;;;14.30;11.43;;;8.70;99.90;;;;;;5091260;27;20482;-82
2023/12/19 02:36:36;;;;;;;17.90;12.57;;;8.60;99.90;;;;;;5107409;27;20157;-81
2023/12/19 02:39:01;;;;;;;13.93;10.45;;;8.70;99.90;;;;;;5092635;28;20055;-81
2023/12/19 02:41:27;;;;;;;14.77;11.25;;;8.70;99.90;;;;;;5089801;28;20494;-81
2023/12/19 02:43:53;;;;;;;14.43;11.50;;;8.60;99.90;;;;;;5106520;27;20043;-81
2023/12/19 02:46:18;;;;;;;15.77;12.32;;;8.70;99.90;;;;;;5085877;28;20047;-81
2023/12/19 02:48:44;;;;;;;13.68;10.00;;;8.70;99.90;;;;;;5107201;28;20490;-81
2023/12/19 02:51:10;;;;;;;13.30;9.88;;;8.70;99.90;;;;;;5101604;27;20044;-82
2023/12/19 02:53:35;;;;;;;14.88;11.10;;;8.70;99.90;;;;;;5089329;28;20114;-82
2023/12/19 02:56:01;;;;;;;15.15;11.60;;;8.70;99.90;;;;;;5108347;27;20031;-81
2023/12/19 02:58:27;;;;;;;12.65;10.00;;;8.60;99.90;;;;;;5104786;28;20039;-81
2023/12/19 03:00:53;;;;;;;12.90;10.05;;;8.60;99.90;;;;;;5125103;27;20058;-81
2023/12/19 03:03:18;;;;;;;14.05;10.90;;;8.70;99.90;;;;;;5090566;28;20510;-81
2023/12/19 03:05:44;;;;;;;14.52;11.13;;;8.60;99.90;;;;;;5099138;27;20092;-81
2023/12/19 03:08:09;;;;;;;13.52;10.55;;;8.60;99.90;;;;;;5092704;27;20051;-81
2023/12/19 03:10:35;;;;;;;12.07;9.88;;;8.70;99.90;;;;;;5097735;28;20101;-81
2023/12/19 03:13:01;;;;;;;11.65;9.35;;;8.70;99.90;;;;;;5106033;28;20372;-81
2023/12/19 03:15:27;;;;;;;13.48;10.20;;;8.60;99.90;;;;;;5112442;28;20042;-81
2023/12/19 03:17:52;;;;;;;14.32;10.40;;;8.60;99.90;;;;;;5109567;28;20092;-81
2023/12/19 03:20:18;;;;;;;12.45;10.15;;;8.60;99.90;;;;;;5111586;28;20395;-81
2023/12/19 03:22:44;;;;;;;14.45;9.90;;;8.60;99.90;;;;;;5092262;28;20073;-81
2023/12/19 03:25:10;;;;;;;12.82;10.23;;;8.60;99.90;;;;;;5095638;28;20081;-81
2023/12/19 03:27:35;;;;;;;12.57;9.57;;;8.60;99.90;;;;;;5091584;28;20085;-81
2023/12/19 03:30:01;;;;;;;10.77;8.68;;;8.70;99.90;;;;;;5080155;28;20044;-81
2023/12/19 03:32:27;;;;;;;13.45;10.73;;;8.60;99.90;;;;;;5134405;27;20032;-81
2023/12/19 03:34:52;;;;;;;13.52;10.32;;;8.60;99.90;;;;;;5097313;28;20071;-80
2023/12/19 03:37:18;;;;;;;11.27;10.02;;;8.60;99.90;;;;;;5108371;28;20031;-80
2023/12/19 03:39:44;;;;;;;12.70;9.82;;;8.50;99.90;;;;;;5111962;28;20071;-80
2023/12/19 03:42:09;;;;;;;13.38;10.77;;;8.50;99.90;;;;;;5057463;28;20050;-81
2023/12/19 03:44:35;;;;;;;12.98;9.88;;;8.50;99.90;;;;;;5096711;28;20477;-81
2023/12/19 03:47:00;;;;;;;11.25;9.48;;;8.50;99.90;;;;;;5112852;28;20040;-81
2023/12/19 03:49:27;;;;;;;12.00;9.40;;;8.50;99.90;;;;;;5109579;28;20231;-81
2023/12/19 03:51:53;;;;;;;;;;;8.50;99.90;;;;;;5107872;28;20044;-80
2023/12/19 03:54:18;;;;;;;12.45;8.98;;;8.40;99.90;;;;;;5106522;28;19922;-80
2023/12/19 03:56:44;;;;;;;10.90;9.07;;;8.50;99.90;;;;;;5092213;28;20051;-80
2023/12/19 03:59:10;;;;;;;12.40;9.68;;;8.40;99.90;;;;;;5108225;28;20062;-83
2023/12/19 04:01:43;;;;;;;;;;;8.50;99.90;;;;;;5112110;28;20041;-81
2023/12/19 04:04:09;;;;;;;11.05;8.63;;;8.50;99.90;;;;;;5111424;28;19927;-82
2023/12/19 04:06:34;;;;;;;11.00;8.85;;;8.40;99.90;;;;;;5098211;28;20040;-79
2023/12/19 04:09:00;;;;;;;9.93;8.40;;;8.50;99.90;;;;;;5114171;28;20040;-79
2023/12/19 04:11:25;;;;;;;10.30;7.72;;;8.40;99.90;;;;;;5098978;28;20114;-82
2023/12/19 04:13:51;;;;;;;8.45;6.75;;;8.50;99.90;;;;;;5104265;28;20063;-79
2023/12/19 04:16:17;;;;;;;8.85;6.90;;;8.40;99.90;;;;;;5111800;28;20100;-80
2023/12/19 04:18:43;;;;;;;8.23;6.90;;;8.30;99.90;;;;;;5099035;27;20039;-80
2023/12/19 04:21:08;;;;;;;9.02;7.30;;;8.50;99.90;;;;;;5111602;27;20042;-79
2023/12/19 04:23:34;;;;;;;7.72;6.30;;;8.50;99.90;;;;;;5116649;27;20398;-79
2023/12/19 04:26:00;;;;;;;8.15;6.10;;;8.30;99.90;;;;;;5118557;27;20043;-77
2023/12/19 04:28:26;;;;;;;8.95;6.32;;;8.40;99.90;;;;;;5111495;27;20097;-77
2023/12/19 04:30:52;;;;;;;7.03;5.70;;;8.50;99.90;;;;;;5078319;27;20035;-78
2023/12/19 04:33:17;;;;;;;6.75;5.80;;;8.50;99.90;;;;;;5109454;27;20043;-76
2023/12/19 04:35:43;;;;;;;8.55;6.65;;;8.30;99.90;;;;;;5110658;27;20040;-75
2023/12/19 04:38:09;;;;;;;6.72;5.75;;;8.20;99.90;;;;;;5090879;27;20048;-75
2023/12/19 04:40:34;;;;;;;7.38;5.90;;;8.30;99.90;;;;;;5111704;27;20078;-75
2023/12/19 04:43:00;;;;;;;7.93;6.15;;;8.40;99.90;;;;;;5106989;27;20123;-75
2023/12/19 04:45:27;;;;;;;6.63;5.35;;;8.30;99.90;;;;;;5109894;27;20101;-75
2023/12/19 04:47:52;;;;;;;8.07;5.93;;;8.20;99.90;;;;;;5090894;28;20051;-75
2023/12/19 04:50:18;;;;;;;6.90;5.43;;;8.20;99.90;;;;;;5093887;27;20065;-75
2023/12/19 04:52:44;;;;;;;6.53;5.53;;;8.40;99.90;;;;;;5108758;27;20043;-76
2023/12/19 04:55:09;;;;;;;6.22;4.85;;;8.20;99.90;;;;;;5107015;27;20506;-75
2023/12/19 04:57:35;;;;;;;8.43;5.68;;;8.40;99.90;;;;;;5111739;27;20040;-76
2023/12/19 05:00:01;;;;;;;6.75;5.60;;;8.30;99.90;;;;;;5113782;27;20056;-76
2023/12/19 05:02:26;;;;;;;6.22;4.93;;;8.50;99.90;;;;;;5122867;27;20479;-76
2023/12/19 05:04:53;;;;;;;7.97;5.60;;;8.30;99.90;;;;;;5112763;27;20051;-76
2023/12/19 05:07:18;;;;;;;5.53;4.70;;;8.20;99.90;;;;;;5107878;27;20047;-77
2023/12/19 05:09:44;;;;;;;6.28;5.25;;;8.40;99.90;;;;;;5106748;27;20058;-77
2023/12/19 05:12:10;;;;;;;5.78;5.10;;;8.50;99.90;;;;;;5091906;27;20046;-77
2023/12/19 05:14:36;;;;;;;6.13;4.70;;;8.20;99.90;;;;;;5109381;27;20074;-76
2023/12/19 05:17:03;;;;;;;6.15;4.72;;;8.50;99.90;;;;;;5091645;27;20046;-76
2023/12/19 05:19:29;;;;;;;5.57;4.55;;;8.40;99.90;;;;;;5128265;27;20044;-76
2023/12/19 05:21:55;;;;;;;5.18;4.13;;;8.20;99.90;;;;;;5108299;27;20131;-75
2023/12/19 05:24:21;;;;;;;6.20;4.93;;;8.40;99.90;;;;;;5106221;27;20126;-75
2023/12/19 05:26:46;;;;;;;5.60;4.55;;;8.30;99.90;;;;;;5106638;27;20043;-75
2023/12/19 05:29:13;;;;;;;5.30;4.30;;;8.50;99.90;;;;;;5092085;28;20085;-76
2023/12/19 05:31:38;;;;;;;;;;;8.50;99.90;;;;;;5102226;27;20043;-75
2023/12/19 05:34:04;;;;;;;6.07;4.10;;;8.20;99.90;;;;;;5105752;27;19927;-75
2023/12/19 05:36:33;;;;;;;4.60;4.00;;;8.40;99.90;;;;;;5101719;27;20063;-76
2023/12/19 05:39:00;;;;;;;4.90;4.10;;;8.20;99.90;;;;;;5092290;28;20749;-75
2023/12/19 05:41:26;;;;;;;4.60;4.10;;;8.20;99.90;;;;;;5102037;28;20043;-76
2023/12/19 05:43:56;;;;;;;5.32;4.47;;;8.30;99.90;;;;;;5106233;27;20497;-75
2023/12/19 05:46:21;;;;;;;6.57;4.32;;;8.30;99.90;;;;;;5105911;27;20047;-76
2023/12/19 05:48:47;;;;;;;4.88;4.10;;;8.50;99.90;;;;;;5101208;27;20063;-75
2023/12/19 05:51:14;;;;;;;5.30;4.30;;;8.40;99.90;;;;;;5073804;28;20032;-76
2023/12/19 05:53:40;;;;;;;4.97;3.83;;;8.30;99.90;;;;;;5102652;27;20398;-75
2023/12/19 05:56:10;;;;;;;5.47;4.28;;;8.40;99.90;;;;;;5108816;27;20031;-75
2023/12/19 05:58:36;;;;;;;5.10;4.05;;;8.50;99.90;;;;;;5107211;27;20039;-76
2023/12/19 06:01:02;;;;;;;5.75;3.95;;;8.30;99.90;;;;;;5099500;27;20391;-75
2023/12/19 06:03:27;;;;;;;5.13;4.13;;;8.40;99.90;;;;;;5083338;28;21562;-76
2023/12/19 06:05:53;;;;;;;4.65;3.92;;;8.30;99.90;;;;;;5100305;28;20040;-76
2023/12/19 06:08:20;;;;;;;4.47;3.92;;;8.60;99.90;;;;;;5109420;27;20028;-75
2023/12/19 06:10:46;;;;;;;4.38;3.78;;;8.40;99.90;;;;;;5104685;27;20118;-75
2023/12/19 06:13:12;;;;;;;4.70;3.78;;;8.50;99.90;;;;;;5090092;28;20027;-76
2023/12/19 06:15:37;;;;;;;4.20;3.60;;;8.40;99.90;;;;;;5089095;27;20748;-76
2023/12/19 06:18:04;;;;;;;4.15;3.55;;;8.40;99.90;;;;;;5077165;28;20043;-76
2023/12/19 06:20:29;;;;;;;4.00;3.58;;;8.70;99.90;;;;;;5109729;27;20075;-76
2023/12/19 06:22:55;;;;;;;4.13;3.53;;;8.70;99.90;;;;;;5109864;27;20078;-77
2023/12/19 06:25:21;;;;;;;4.90;3.88;;;8.70;99.90;;;;;;5106285;27;20047;-76
2023/12/19 06:27:47;;;;;;;5.25;3.95;;;8.60;99.90;;;;;;5106109;27;20046;-77
2023/12/19 06:30:13;;;;;;;5.35;4.07;;;8.40;99.90;;;;;;5104317;27;20035;-76
2023/12/19 06:32:40;;;;;;;4.80;4.20;;;8.60;99.90;;;;;;5105306;27;20040;-76
2023/12/19 06:35:08;;;;;;;4.85;4.22;;;8.50;99.90;;;;;;5109554;27;20080;-76
2023/12/19 06:37:34;;;;;;;4.65;3.95;;;8.50;99.90;;;;;;5090931;28;20035;-76
2023/12/19 06:40:00;;;;;;;5.28;4.40;;;8.80;99.90;;;;;;5092834;28;20141;-78
2023/12/19 06:42:26;;;;;;;5.35;4.43;;;8.80;99.90;;;;;;5103529;28;20094;-76
2023/12/19 06:44:51;;;;;;;4.93;3.97;;;8.80;99.90;;;;;;5088620;28;20063;-76
2023/12/19 06:47:17;;;;;;;5.65;4.60;;;8.50;99.90;;;;;;5082021;28;20747;-78
2023/12/19 06:49:43;;;;;;;4.90;4.18;;;8.80;99.90;;;;;;5088714;27;20039;-77
2023/12/19 06:52:10;;;;;;;4.65;3.95;;;8.80;99.90;;;;;;5110228;27;20041;-76
2023/12/19 06:54:37;;;;;;;4.70;4.20;;;8.80;99.90;;;;;;5101526;27;20039;-77
2023/12/19 06:57:04;;;;;;;5.53;4.18;;;8.80;99.90;;;;;;5105073;27;20044;-76
2023/12/19 06:59:32;;;;;;;4.93;4.28;;;8.60;99.90;;;;;;5107763;28;20134;-76
2023/12/19 07:01:58;;;;;;;4.75;4.10;;;8.50;99.90;;;;;;5085937;27;20799;-77
2023/12/19 07:04:23;;;;;;;6.53;4.60;;;8.50;99.90;;;;;;5104924;28;20043;-76
2023/12/19 07:06:49;;;;;;;6.25;5.07;;;8.50;99.90;;;;;;5105188;28;20096;-76
2023/12/19 07:09:15;;;;;;;5.65;4.63;;;8.70;99.90;;;;;;5108366;28;20040;-75
2023/12/19 07:11:41;;;;;;;4.20;3.80;;;8.80;99.90;;;;;;5101399;28;20043;-76
2023/12/19 07:14:07;;;;;;;;;;;8.50;99.90;;;;;;5106412;27;20036;-75
2023/12/19 07:16:33;;;;;;;4.75;4.20;;;8.50;99.90;;;;;;5101287;28;20429;-76
2023/12/19 07:19:00;;;;;;;5.07;4.32;;;8.50;99.90;;;;;;5099230;28;20195;-76
2023/12/19 07:21:26;;;;;;;4.65;3.80;;;8.50;99.90;;;;;;5102605;28;20428;-75
2023/12/19 07:23:53;;;;;;;4.97;4.40;;;8.50;99.90;;;;;;5113623;28;20043;-76
2023/12/19 07:26:24;;;;;;;4.57;3.90;;;8.80;99.90;;;;;;5114124;28;20036;-75
2023/12/19 07:28:51;;;;;;;4.40;3.75;;;8.60;99.90;;;;;;5106711;28;20074;-76
2023/12/19 07:31:27;;;;;;;4.05;3.55;;;8.60;99.90;;;;;;5107964;28;20039;-75
2023/12/19 07:34:03;;;;;;;4.95;4.05;;;8.50;99.90;;;;;;5103095;28;20043;-75
2023/12/19 07:36:30;;;;;;;4.88;4.20;;;8.60;99.90;;;;;;5104642;28;20047;-75
2023/12/19 07:38:55;;;;;;;;;;;8.50;99.90;;;;;;5108786;28;20126;-75
2023/12/19 07:41:23;;;;;;;4.25;3.42;;;8.80;99.90;;;;;;5109226;28;20002;-75
2023/12/19 07:43:49;;;;;;;4.10;3.50;;;8.80;99.90;;;;;;5092723;28;20051;-75
2023/12/19 07:46:15;;;;;;;4.53;3.33;;;8.90;99.90;;;;;;5099654;28;20043;-75
2023/12/19 07:48:41;;;;;;;3.30;2.80;;;8.80;99.90;;;;;;5106384;28;20042;-76
2023/12/19 07:51:07;;;;;;;3.70;3.00;;;8.50;99.90;;;;;;5106474;28;20056;-75
2023/12/19 07:53:33;;;;;;;3.58;3.10;;;8.70;99.90;;;;;;5107594;27;20479;-75
2023/12/19 07:56:03;;;;;;;3.97;3.15;;;8.60;99.90;;;;;;5110198;27;20035;-75
2023/12/19 07:58:29;;;;;;;3.55;3.10;;;8.70;99.90;;;;;;5109060;27;20051;-75
2023/12/19 08:00:55;;;;;;;4.63;3.45;;;8.70;99.90;;;;;;5105216;27;20053;-75
2023/12/19 08:03:25;;;;;;;4.05;3.17;;;8.60;99.90;;;;;;5112119;27;20035;-76
2023/12/19 08:05:53;;;;;;;4.05;3.42;;;8.50;99.90;;;;;;5108621;27;20402;-75
2023/12/19 08:08:20;;;;;;;3.63;3.00;;;8.70;99.90;;;;;;5100887;28;20047;-75
2023/12/19 08:10:46;;;;;;;3.78;2.80;;;8.90;99.90;;;;;;5109157;27;20060;-75
2023/12/19 08:13:12;;;;;;;3.55;2.90;;;8.60;99.90;;;;;;5109942;27;20052;-75
2023/12/19 08:15:40;;;;;;;3.50;2.95;;;8.90;99.90;;;;;;5108391;27;20051;-76
2023/12/19 08:18:06;;;;;;;4.03;3.20;;;8.90;99.90;;;;;;5102851;27;20167;-75
2023/12/19 08:20:33;;;;;;;3.25;2.92;;;8.90;99.90;;;;;;5109914;27;20437;-76
2023/12/19 08:22:59;;;;;;;3.40;3.10;;;8.70;99.90;;;;;;5110876;27;20066;-76
2023/12/19 08:25:25;;;;;;;3.78;3.20;;;8.90;99.90;;;;;;5111705;27;20397;-75
2023/12/19 08:27:50;;;;;;;4.03;3.00;;;9.00;99.90;;;;;;5113342;27;20048;-75
2023/12/19 08:30:16;;;;;;;3.67;3.08;;;8.60;99.90;;;;;;5129500;27;20050;-76
2023/12/19 08:32:42;;;;;;;3.47;2.90;;;8.90;99.90;;;;;;5108977;27;20091;-76
2023/12/19 08:35:08;;;;;;;3.65;3.13;;;8.60;99.90;;;;;;5108830;27;20043;-76
2023/12/19 08:37:33;;;;;;;4.90;3.13;;;8.90;99.90;;;;;;5107560;27;20051;-77
2023/12/19 08:40:02;;;;;;;3.67;3.25;;;8.60;99.90;;;;;;5086800;27;20065;-77
2023/12/19 08:42:29;;;;;;;4.13;3.42;;;8.60;99.90;;;;;;5108579;27;20032;-75
2023/12/19 08:44:55;;;;;;;;;;;8.70;99.90;;;;;;5109110;27;20040;-75
2023/12/19 08:47:25;;;;;;;4.83;4.27;;;8.80;99.90;;;;;;5108873;27;19976;-75
2023/12/19 08:49:56;;;;;;;5.15;4.28;;;8.80;99.90;;;;;;5087423;28;20807;-76
2023/12/19 08:52:23;;;;;;;5.88;4.65;;;8.80;99.90;;;;;;5088154;28;20129;-76
2023/12/19 08:54:49;;;;;;;5.07;4.53;;;9.10;99.90;;;;;;5089553;27;20051;-76
2023/12/19 08:57:15;;;;;;;5.55;4.80;;;8.90;99.90;;;;;;5114460;27;20170;-75
2023/12/19 08:59:40;;;;;;;5.53;4.80;;;9.10;99.90;;;;;;5105521;27;20130;-75
2023/12/19 09:02:07;;;;;;;5.53;4.93;;;9.20;99.90;;;;;;5110050;27;20464;-71
2023/12/19 09:04:33;;;;;;;6.40;5.38;;;9.10;99.90;;;;;;5117703;27;20126;-71
2023/12/19 09:06:59;;;;;;;6.20;5.60;;;9.00;99.90;;;;;;5096669;27;20138;-71
2023/12/19 09:09:25;;;;;;;6.25;5.53;;;9.20;99.90;;;;;;5112546;27;20032;-71
2023/12/19 09:11:50;;;;;;;6.18;5.35;;;9.20;99.90;;;;;;5113480;27;20047;-71
2023/12/19 09:14:17;;;;;;;6.07;5.25;;;9.20;99.90;;;;;;5119355;27;20482;-70
2023/12/19 09:16:43;;;;;;;5.75;5.15;;;8.90;99.90;;;;;;5097705;28;20122;-72
2023/12/19 09:19:09;;;;;;;;;;;9.00;99.90;;;;;;5115410;27;20051;-70
2023/12/19 09:21:34;;;;;;;5.95;5.35;;;9.00;99.90;;;;;;5112978;27;19923;-69
2023/12/19 09:24:00;;;;;;;6.00;5.40;;;9.20;99.90;;;;;;5088033;27;20047;-70
2023/12/19 09:26:27;;;;;;;6.65;5.22;;;9.30;99.90;;;;;;5111874;27;20028;-70
2023/12/19 09:28:55;;;;;;;5.25;4.65;;;9.00;99.90;;;;;;5110428;27;20044;-70
2023/12/19 09:31:21;;;;;;;5.50;4.65;;;9.00;99.90;;;;;;5120256;27;20038;-70
2023/12/19 09:33:48;;;;;;;5.50;4.88;;;9.00;99.90;;;;;;5110100;27;20512;-70
2023/12/19 09:36:21;;;;;;;5.40;4.90;;;9.20;99.90;;;;;;5127011;27;20486;-70
2023/12/19 09:38:47;;;;;;;4.97;4.25;;;9.00;99.90;;;;;;5115484;27;20059;-70
2023/12/19 09:41:13;;;;;;;4.97;4.47;;;9.40;99.90;;;;;;5112079;27;20105;-70
2023/12/19 09:43:41;;;;;;;5.00;4.43;;;9.20;99.90;;;;;;5113687;27;20050;-70
2023/12/19 09:46:07;;;;;;;4.85;4.38;;;9.10;99.90;;;;;;5111130;27;20100;-70
2023/12/19 09:48:35;;;;;;;4.70;4.20;;;9.30;99.90;;;;;;5109672;27;20108;-70
2023/12/19 09:51:03;;;;;;;5.10;4.53;;;9.10;99.90;;;;;;5115006;27;20103;-69
2023/12/19 09:53:34;;;;;;;4.80;4.30;;;9.50;99.90;;;;;;5109588;27;20044;-70
2023/12/19 09:56:01;;;;;;;5.93;4.53;;;9.50;99.90;;;;;;5113255;27;20043;-70
2023/12/19 09:58:31;;;;;;;6.32;4.80;;;9.30;99.90;;;;;;5112951;27;20043;-70
2023/12/19 10:01:00;;;;;;;5.05;4.25;;;9.60;99.90;;;;;;5116736;27;20085;-70
2023/12/19 10:03:29;;;;;;;5.00;4.50;;;9.30;99.90;;;;;;5128663;27;20070;-70
2023/12/19 10:05:56;;;;;;;4.10;3.70;;;9.60;99.90;;;;;;5107163;28;20589;-70
2023/12/19 10:08:22;;;;;;;4.30;3.83;;;9.60;99.90;;;;;;5119644;27;20070;-70
2023/12/19 10:10:56;;;;;;;4.40;3.90;;;9.40;99.90;;;;;;5126030;27;20454;-70
2023/12/19 10:13:30;;;;;;;4.68;4.20;;;9.60;99.90;;;;;;5120205;27;20545;-70
2023/12/19 10:16:04;;;;;;;3.90;3.50;;;9.60;99.90;;;;;;5116688;27;20043;-72
2023/12/19 10:18:30;;;;;;;4.22;3.35;;;9.60;99.90;;;;;;5128529;27;20046;-70
2023/12/19 10:21:15;;;;;;;3.55;3.25;;;9.30;99.90;;;;;;5104138;27;20047;-70
2023/12/19 10:23:42;;;;;;;4.00;3.50;;;9.30;99.90;;;;;;5110647;27;20054;-70
2023/12/19 10:26:08;;;;;;;4.25;3.80;;;9.60;99.90;;;;;;5109587;27;20043;-69
2023/12/19 10:28:35;;;;;;;4.35;3.90;;;9.60;99.90;;;;;;5120064;27;20058;-70
2023/12/19 10:31:15;;;;;;;4.05;3.65;;;9.60;99.90;;;;;;5105413;27;20036;-70
2023/12/19 10:33:49;;;;;;;4.80;4.03;;;9.30;99.90;;;;;;5119719;27;20042;-70
2023/12/19 10:36:24;;;;;;;4.47;4.07;;;9.70;99.90;;;;;;5113095;27;20043;-70
2023/12/19 10:38:51;;;;;;;4.35;3.95;;;9.70;99.90;;;;;;5122813;27;20046;-69
2023/12/19 10:41:22;;;;;;;5.05;4.55;;;9.70;99.90;;;;;;5116684;27;20388;-70
2023/12/19 10:43:52;;;;;;;5.78;4.15;;;9.80;99.90;;;;;;5125732;27;20042;-70
2023/12/19 10:46:24;;;;;;;4.78;4.15;;;9.70;99.90;;;;;;5121796;27;20039;-70
2023/12/19 10:48:54;;;;;;;5.82;4.65;;;9.70;99.90;;;;;;5109670;27;20035;-70
2023/12/19 10:51:41;;;;;;;6.32;5.05;;;9.80;99.90;;;;;;5094736;28;20039;-70
2023/12/19 10:54:10;;;;;;;5.75;5.07;;;9.40;99.90;;;;;;5101652;28;20036;-70
2023/12/19 10:56:59;;;;;;;5.15;4.63;;;9.80;99.90;;;;;;5119158;27;20031;-69
2023/12/19 10:59:53;;;;;;;5.32;4.82;;;9.60;99.90;;;;;;5093270;28;20035;-70
2023/12/19 11:02:28;;;;;;;5.55;4.95;;;9.50;99.90;;;;;;5121212;27;20039;-70
2023/12/19 11:05:24;;;;;;;5.05;4.53;;;9.70;99.90;;;;;;5112520;27;20039;-69
2023/12/19 11:07:57;;;;;;;6.82;6.10;;;9.50;99.90;;;;;;5093519;28;20051;-70
2023/12/19 11:10:26;;;;;;;6.28;5.68;;;9.90;99.90;;;;;;5110314;27;20036;-70
2023/12/19 11:12:53;;;;;;;5.35;4.80;;;9.90;99.90;;;;;;5111400;27;20092;-70
2023/12/19 11:15:19;;;;;;;5.32;4.68;;;9.60;99.90;;;;;;5127946;27;20040;-70
2023/12/19 11:17:51;;;;;;;5.75;5.20;;;10.00;99.90;;;;;;5124027;27;20050;-70
2023/12/19 11:20:25;;;;;;;5.32;4.82;;;9.70;99.90;;;;;;5108408;28;20360;-70
2023/12/19 11:23:04;;;;;;;5.25;4.75;;;10.00;99.90;;;;;;5128274;28;20053;-70
2023/12/19 11:25:44;;;;;;;5.50;5.00;;;9.70;99.90;;;;;;5125548;28;20084;-70
2023/12/19 11:28:10;;;;;;;5.10;4.60;;;9.70;99.90;;;;;;5096009;27;20051;-70
2023/12/19 11:30:37;;;;;;;5.43;4.60;;;9.70;99.90;;;;;;5098435;28;20039;-70
2023/12/19 11:33:04;;;;;;;5.97;5.38;;;9.90;99.90;;;;;;5122778;27;20042;-70
2023/12/19 11:35:31;;;;;;;6.00;5.40;;;9.70;99.90;;;;;;5114265;27;20509;-70
2023/12/19 11:38:17;;;;;;;6.15;5.55;;;10.10;99.90;;;;;;5102696;27;20082;-70
2023/12/19 11:40:49;;;;;;;5.80;5.20;;;10.00;99.90;;;;;;5116011;27;20055;-70
2023/12/19 11:43:36;;;;;;;4.78;4.28;;;10.10;99.90;;;;;;5103841;28;20108;-70
2023/12/19 11:46:02;;;;;;;;;;;10.10;99.90;;;;;;5097276;27;20052;-70
2023/12/19 11:48:38;;;;;;;4.88;4.32;;;9.70;99.90;;;;;;5120050;27;19923;-70
2023/12/19 11:51:04;;;;;;;5.00;4.50;;;10.20;99.90;;;;;;5105844;27;20051;-70
2023/12/19 11:53:30;;;;;;;4.97;4.47;;;10.00;99.90;;;;;;5116530;27;20401;-70
2023/12/19 11:56:05;;;;;;;5.45;4.95;;;9.80;99.90;;;;;;5133580;27;20395;-70
2023/12/19 11:58:32;;;;;;;4.53;4.13;;;9.80;99.90;;;;;;5119263;27;20040;-70
2023/12/19 12:00:58;;;;;;;;;;;10.20;99.90;;;;;;5096857;27;20039;-70
2023/12/19 12:03:24;;;;;;;4.20;3.80;;;9.80;99.90;;;;;;5098763;27;19927;-70
2023/12/19 12:05:50;;;;;;;4.30;3.90;;;10.20;99.90;;;;;;5128302;27;20039;-70
2023/12/19 12:08:16;;;;;;;4.68;4.10;;;10.00;99.90;;;;;;5123013;27;20035;-70
2023/12/19 12:10:56;;;;;;;4.05;3.65;;;9.90;99.90;;;;;;5096711;28;20123;-71
2023/12/19 12:13:22;;;;;;;4.20;3.58;;;10.00;99.90;;;;;;5114334;27;20155;-71
2023/12/19 12:15:53;;;;;;;4.30;3.70;;;10.10;99.90;;;;;;5121306;27;20039;-71
2023/12/19 12:18:19;;;;;;;4.00;3.60;;;9.90;99.90;;;;;;5104803;27;20100;-70
2023/12/19 12:20:44;;;;;;;3.80;3.40;;;10.00;99.90;;;;;;5112055;27;20554;-70
2023/12/19 12:23:10;;;;;;;3.85;3.47;;;9.80;99.90;;;;;;5098420;27;20035;-70
2023/12/19 12:25:36;;;;;;;3.20;2.90;;;9.70;99.90;;;;;;5120032;27;20467;-70
2023/12/19 12:28:09;;;;;;;4.78;3.67;;;9.90;99.90;;;;;;5094058;27;20035;-70
2023/12/19 12:30:35;;;;;;;4.35;3.30;;;9.80;99.90;;;;;;5094231;28;20048;-70
2023/12/19 12:33:05;;;;;;;3.25;2.95;;;10.00;99.90;;;;;;5096918;28;20023;-70
2023/12/19 12:35:36;;;;;;;3.47;3.17;;;9.60;99.90;;;;;;5121258;27;20046;-70
2023/12/19 12:38:03;;;;;;;3.58;3.08;;;9.90;99.90;;;;;;5123292;27;20163;-71
2023/12/19 12:40:30;;;;;;;3.40;3.10;;;10.00;99.90;;;;;;5106192;27;20055;-70
2023/12/19 12:43:55;;;;;;;4.05;3.35;;;9.70;99.90;;;;;;5100243;28;20049;-70
2023/12/19 12:46:19;;;;;;;3.55;3.15;;;9.90;99.90;;;;;;5108390;27;20036;-70
2023/12/19 12:48:54;;;;;;;3.70;3.20;;;9.80;99.90;;;;;;5113389;27;20571;-70
2023/12/19 12:51:20;;;;;;;3.40;3.10;;;9.80;99.90;;;;;;5111228;27;20578;-70
2023/12/19 12:53:54;;;;;;;3.72;3.28;;;9.60;99.90;;;;;;5113856;27;20565;-70